Time;durP1;ratioP1;P1;durP2;ratioP2;P2;SDS_P1;SDS_P2;PMS_P1;PMS_P2;Temp;Humidity;BMP_temperature;BMP_pressure;BME280_temperature;BME280_humidity;BME280_pressure;Samples;Min_cycle;Max_cycle;Signal;HPM_P1;HPM_P2
2023/01/29 00:02:11;;;;;;;20.80;9.30;;;;;;;3.81;53.76;102999.81;4971961;28;109581;-72
2023/01/29 00:04:38;;;;;;;20.75;8.52;;;;;;;3.80;53.74;102993.66;4981584;28;108000;-71
2023/01/29 00:07:05;;;;;;;21.35;9.50;;;;;;;3.83;53.69;103003.34;4963881;28;123733;-71
2023/01/29 00:09:32;;;;;;;21.55;9.32;;;;;;;3.82;53.78;102991.06;4976442;28;123661;-71
2023/01/29 00:11:59;;;;;;;18.00;9.10;;;;;;;3.83;53.89;102982.38;4957774;28;109888;-72
2023/01/29 00:14:26;;;;;;;20.52;9.82;;;;;;;3.84;53.93;102990.25;4962605;28;110273;-72
2023/01/29 00:16:54;;;;;;;22.38;9.35;;;;;;;3.84;54.00;102984.13;4968934;28;123965;-72
2023/01/29 00:19:21;;;;;;;22.27;9.90;;;;;;;3.83;53.81;102983.25;4961109;28;124565;-73
2023/01/29 00:21:48;;;;;;;26.13;10.43;;;;;;;3.82;53.66;102970.09;4969161;28;109835;-70
2023/01/29 00:24:15;;;;;;;23.92;9.02;;;;;;;3.78;53.63;102969.16;4962002;28;109695;-71
2023/01/29 00:26:42;;;;;;;18.73;8.65;;;;;;;3.76;53.63;102976.13;4956796;28;123808;-74
2023/01/29 00:29:10;;;;;;;22.75;9.93;;;;;;;3.74;53.84;102971.72;4961318;28;123587;-71
2023/01/29 00:31:37;;;;;;;22.75;9.20;;;;;;;3.68;53.67;102965.50;4961082;28;108772;-71
2023/01/29 00:34:06;;;;;;;20.15;8.25;;;;;;;3.65;53.57;102961.94;4979157;28;108059;-71
2023/01/29 00:36:33;;;;;;;19.45;8.77;;;;;;;3.61;53.52;102971.47;4959196;28;123429;-71
2023/01/29 00:39:01;;;;;;;23.15;9.35;;;;;;;3.58;53.59;102965.28;4975121;28;122683;-71
2023/01/29 00:47:04;;;;;;;17.83;8.63;;;;;;;3.49;53.71;102945.06;4959989;28;124186;-71
2023/01/29 00:49:31;;;;;;;21.88;8.68;;;;;;;3.48;53.67;102954.69;4965153;28;124994;-71
2023/01/29 00:54:44;;;;;;;19.23;8.13;;;;;;;3.43;53.63;102945.84;4963558;28;109546;-71
2023/01/29 00:57:11;;;;;;;21.85;8.07;;;;;;;3.42;53.97;102932.72;4976824;28;123581;-71
2023/01/29 00:59:38;;;;;;;18.50;7.85;;;;;;;3.41;53.44;102930.94;4964633;28;123103;-71
2023/01/29 01:04:50;;;;;;;19.50;8.02;;;;;;;3.38;53.83;102925.66;4968241;28;108924;-71
2023/01/29 01:07:18;;;;;;;16.63;7.30;;;;;;;3.37;53.90;102926.50;4964129;28;123882;-71
2023/01/29 01:12:31;;;;;;;21.88;8.13;;;;;;;3.33;53.82;102922.94;4982278;28;108634;-71
2023/01/29 01:14:59;;;;;;;21.05;8.27;;;;;;;3.34;54.06;102931.69;4979863;28;108871;-70
2023/01/29 01:17:26;;;;;;;18.27;8.23;;;;;;;3.34;54.11;102929.09;4976363;28;123210;-71
2023/01/29 01:19:53;;;;;;;18.05;7.90;;;;;;;3.34;54.06;102929.09;4967284;28;124233;-71
2023/01/29 01:22:21;;;;;;;18.40;8.40;;;;;;;3.33;54.10;102932.53;4966862;28;108570;-71
2023/01/29 01:24:48;;;;;;;18.55;7.80;;;;;;;3.31;53.91;102928.19;4979264;28;108473;-71
2023/01/29 01:27:15;;;;;;;19.50;7.95;;;;;;;3.30;53.96;102929.00;4963237;28;123833;-70
2023/01/29 01:29:42;;;;;;;20.42;8.68;;;;;;;3.29;54.02;102927.22;4973035;28;123662;-71
2023/01/29 01:32:09;;;;;;;22.30;8.43;;;;;;;3.29;53.84;102931.59;4959288;28;109168;-71
2023/01/29 01:34:36;;;;;;;18.60;8.18;;;;;;;3.28;53.98;102935.97;4960693;28;109290;-71
2023/01/29 01:37:04;;;;;;;19.67;8.38;;;;;;;3.27;54.27;102928.94;4975496;28;123767;-71
2023/01/29 01:39:31;;;;;;;21.02;8.10;;;;;;;3.25;53.88;102935.00;4978877;28;123546;-71
2023/01/29 01:41:58;;;;;;;21.75;9.00;;;;;;;3.25;53.93;102935.88;4968029;28;109211;-71
2023/01/29 01:44:52;;;;;;;18.55;8.10;;;;;;;3.23;54.21;102937.59;4958485;28;108055;-71
2023/01/29 01:47:25;;;;;;;19.48;8.15;;;;;;;3.25;54.18;102935.88;4976923;28;122594;-71
2023/01/29 01:49:54;;;;;;;19.08;9.00;;;;;;;3.25;54.13;102941.13;4957528;28;124381;-71
2023/01/29 01:52:21;;;;;;;23.48;9.60;;;;;;;3.24;54.04;102934.13;4972629;28;110308;-71
2023/01/29 01:54:50;;;;;;;22.63;8.75;;;;;;;3.24;54.31;102938.47;4962431;28;109344;-71
2023/01/29 01:57:24;;;;;;;22.40;9.40;;;;;;;3.23;54.20;102937.59;4963765;28;123246;-71
2023/01/29 01:59:57;;;;;;;23.23;8.68;;;;;;;3.24;54.19;102944.63;4980725;28;123225;-70
2023/01/29 02:10:46;;;;;;;21.92;8.77;;;;;;;3.19;54.15;102935.78;4978550;28;124043;-71
2023/01/29 02:13:17;;;;;;;21.25;8.57;;;;;;;3.17;54.22;102937.50;4975398;28;108639;-71
2023/01/29 02:15:47;;;;;;;21.08;8.98;;;;;;;3.18;54.34;102936.63;4975480;28;108744;-70
2023/01/29 02:18:18;;;;;;;24.85;9.10;;;;;;;3.19;54.43;102941.03;4967573;28;125714;-70
2023/01/29 02:21:24;;;;;;;21.77;9.02;;;;;;;3.19;54.29;102946.25;4979163;28;123197;-71
2023/01/29 02:24:15;;;;;;;20.23;8.80;;;;;;;3.18;54.30;102949.72;4966543;28;109797;-71
2023/01/29 02:27:03;;;;;;;23.35;8.68;;;;;;;3.18;54.40;102944.47;4964665;28;108289;-71
2023/01/29 02:29:40;;;;;;;22.48;9.70;;;;;;;3.15;54.20;102949.66;4978185;28;123305;-71
2023/01/29 02:32:16;;;;;;;25.77;9.32;;;;;;;3.14;54.19;102953.13;4977061;28;124275;-71
2023/01/29 02:38:03;;;;;;;21.23;9.60;;;;;;;3.11;54.19;102945.22;4957870;28;108628;-70
2023/01/29 02:40:39;;;;;;;24.45;9.98;;;;;;;3.11;54.33;102953.09;4951891;28;124007;-71
2023/01/29 02:43:35;;;;;;;24.48;10.05;;;;;;;3.11;54.27;102953.97;4971760;28;122133;-71
2023/01/29 02:46:15;;;;;;;23.50;9.68;;;;;;;3.10;54.45;102946.94;4962687;28;109648;-71
2023/01/29 02:48:52;;;;;;;22.02;9.77;;;;;;;3.09;54.58;102953.06;4978597;28;109711;-71
2023/01/29 02:51:36;;;;;;;22.75;10.02;;;;;;;3.12;54.31;102954.84;4959633;28;124252;-71
2023/01/29 02:54:15;;;;;;;23.98;9.85;;;;;;;3.15;54.48;102954.91;4959027;28;124362;-70
2023/01/29 02:56:52;;;;;;;24.35;10.00;;;;;;;3.13;54.40;102943.53;4965083;28;108396;-71
2023/01/29 02:59:34;;;;;;;23.75;10.07;;;;;;;3.14;54.36;102937.41;4977006;28;109644;-71
2023/01/29 03:02:07;;;;;;;24.73;10.10;;;;;;;3.14;54.35;102940.03;4959412;28;123538;-70
2023/01/29 03:04:42;;;;;;;23.85;10.52;;;;;;;3.14;54.47;102941.78;4971425;28;124325;-71
2023/01/29 03:07:41;;;;;;;25.73;11.07;;;;;;;3.12;54.29;102944.38;4978818;28;108727;-71
2023/01/29 03:10:16;;;;;;;25.35;11.10;;;;;;;3.12;54.51;102949.59;4973272;28;109510;-71
2023/01/29 03:12:54;;;;;;;28.67;10.93;;;;;;;3.11;54.26;102938.25;4959408;28;123048;-70
2023/01/29 03:15:29;;;;;;;26.35;11.73;;;;;;;3.10;54.52;102941.72;4973745;28;123599;-71
2023/01/29 03:18:17;;;;;;;26.05;11.13;;;;;;;3.12;54.58;102940.00;4958981;28;109791;-71
2023/01/29 03:20:57;;;;;;;24.70;11.07;;;;;;;3.14;54.58;102949.63;4975568;28;109120;-71
2023/01/29 03:32:05;;;;;;;25.83;11.07;;;;;;;3.15;54.52;102949.66;4981308;28;109978;-72
2023/01/29 03:34:42;;;;;;;25.00;10.40;;;;;;;3.14;54.69;102942.66;4966259;28;123352;-71
2023/01/29 03:37:25;;;;;;;27.05;11.45;;;;;;;3.16;54.80;102943.56;4975344;28;123703;-72
2023/01/29 03:39:53;;;;;;;26.58;11.68;;;;;;;3.18;54.68;102935.75;4970186;28;109113;-71
2023/01/29 03:42:39;;;;;;;26.35;10.85;;;;;;;3.18;54.59;102928.75;4977333;28;109348;-72
2023/01/29 03:45:09;;;;;;;;;;;;;;;3.19;54.63;102935.78;4974555;28;123495;-72
2023/01/29 03:47:46;;;;;;;23.75;10.60;;;;;;;3.22;54.60;102930.63;4976473;28;124095;-72
2023/01/29 03:50:19;;;;;;;26.83;11.60;;;;;;;3.21;54.51;102918.38;4976840;28;108427;-71
2023/01/29 03:52:55;;;;;;;24.45;10.73;;;;;;;3.23;54.88;102927.13;4964478;28;108699;-72
2023/01/29 03:55:42;;;;;;;26.23;10.75;;;;;;;3.25;54.88;102920.19;4976667;28;122306;-72
2023/01/29 03:58:46;;;;;;;27.58;11.35;;;;;;;3.29;54.91;102916.75;4957071;28;124025;-72
2023/01/29 04:01:22;;;;;;;25.33;11.32;;;;;;;3.29;54.75;102911.53;4962811;28;108370;-72
2023/01/29 04:03:53;;;;;;;28.13;11.02;;;;;;;3.31;54.99;102909.84;4963717;28;109215;-72
2023/01/29 04:06:24;;;;;;;24.00;11.05;;;;;;;3.34;54.88;102902.91;4981487;28;123685;-72
2023/01/29 04:09:11;;;;;;;29.48;11.65;;;;;;;3.34;54.81;102895.03;4965680;28;123645;-71
2023/01/29 04:12:10;;;;;;;27.65;11.88;;;;;;;3.36;54.89;102896.81;4974160;28;108633;-72
2023/01/29 04:14:41;;;;;;;29.77;12.05;;;;;;;3.37;54.88;102901.22;4975347;28;110687;-72
2023/01/29 04:17:15;;;;;;;31.92;13.10;;;;;;;3.40;54.89;102903.00;4968209;28;124421;-72
2023/01/29 04:19:49;;;;;;;26.70;11.65;;;;;;;3.42;54.46;102893.44;4978065;28;123130;-72
2023/01/29 04:22:30;;;;;;;28.65;12.55;;;;;;;3.42;54.71;102890.81;4965525;28;108924;-72
2023/01/29 04:25:01;;;;;;;28.52;11.75;;;;;;;3.44;54.72;102889.09;4957248;28;109538;-71
2023/01/29 04:28:08;;;;;;;30.65;11.80;;;;;;;3.42;54.72;102890.81;4963137;28;124074;-72
2023/01/29 04:30:53;;;;;;;26.98;11.88;;;;;;;3.44;54.65;102894.34;4974603;28;124618;-72
2023/01/29 04:33:34;;;;;;;32.90;12.57;;;;;;;3.44;54.98;102902.19;4978803;28;109699;-72
2023/01/29 04:36:15;;;;;;;26.38;11.52;;;;;;;3.45;54.78;102890.88;4974474;28;109311;-72
2023/01/29 04:38:42;;;;;;;30.77;12.52;;;;;;;3.46;54.93;102877.78;4973925;28;123403;-71
2023/01/29 04:41:25;;;;;;;30.75;12.80;;;;;;;3.47;55.08;102865.59;4967810;28;123017;-72
2023/01/29 04:44:01;;;;;;;30.65;12.25;;;;;;;3.48;54.97;102862.09;4965197;28;109099;-71
2023/01/29 04:46:47;;;;;;;29.20;13.15;;;;;;;3.50;55.04;102852.50;4960322;28;110334;-72
2023/01/29 04:49:33;;;;;;;27.83;12.43;;;;;;;3.50;54.75;102839.41;4983493;28;124044;-72
2023/01/29 04:52:25;;;;;;;29.63;11.75;;;;;;;3.50;54.91;102827.22;4979834;28;124067;-72
2023/01/29 04:55:06;;;;;;;32.33;12.43;;;;;;;3.51;54.82;102828.09;4961954;28;109380;-72
2023/01/29 04:57:56;;;;;;;33.10;13.02;;;;;;;3.53;55.03;102831.63;4963206;28;109843;-72
2023/01/29 05:00:28;;;;;;;28.00;12.45;;;;;;;3.55;54.93;102840.38;4959622;28;124070;-72
2023/01/29 05:02:56;;;;;;;27.10;11.70;;;;;;;3.57;55.13;102837.78;4963090;28;125410;-72
2023/01/29 05:05:23;;;;;;;31.85;12.65;;;;;;;3.59;55.03;102842.19;4983987;28;108314;-72
2023/01/29 05:07:51;;;;;;;29.40;13.00;;;;;;;3.61;54.85;102835.22;4961541;28;109789;-72
2023/01/29 05:10:20;;;;;;;29.17;12.65;;;;;;;3.64;55.20;102845.78;4971029;28;122844;-72
2023/01/29 05:12:56;;;;;;;28.80;12.23;;;;;;;3.65;54.95;102842.28;4959398;28;124185;-72
2023/01/29 05:15:31;;;;;;;28.58;11.27;;;;;;;3.68;55.05;102837.09;4977354;28;108800;-72
2023/01/29 05:18:01;;;;;;;31.40;12.73;;;;;;;3.70;54.96;102835.38;4961369;28;109855;-72
2023/01/29 05:20:34;;;;;;;29.02;11.50;;;;;;;3.70;55.19;102824.91;4959652;28;124615;-72
2023/01/29 05:23:01;;;;;;;30.40;12.07;;;;;;;3.72;55.09;102816.19;4958043;28;123401;-72
2023/01/29 05:25:31;;;;;;;25.10;11.65;;;;;;;3.72;54.62;102816.19;4976619;28;110007;-72
2023/01/29 05:28:12;;;;;;;30.35;12.55;;;;;;;3.73;54.88;102812.69;4978764;28;109244;-72
2023/01/29 05:30:40;;;;;;;30.10;11.25;;;;;;;3.74;54.93;102825.84;4959392;28;123683;-72
2023/01/29 05:33:17;;;;;;;30.55;12.25;;;;;;;3.76;54.95;102825.88;4972573;28;124040;-72
2023/01/29 05:35:45;;;;;;;25.95;12.48;;;;;;;3.77;54.96;102824.97;4977586;28;108875;-72
2023/01/29 05:38:12;;;;;;;27.00;11.88;;;;;;;3.79;55.14;102812.81;4976541;28;110307;-72
2023/01/29 05:40:40;;;;;;;30.17;12.70;;;;;;;3.81;55.22;102821.59;4966794;28;124184;-71
2023/01/29 05:43:21;;;;;;;29.25;12.00;;;;;;;3.82;55.32;102828.56;4975389;28;123358;-72
2023/01/29 05:45:56;;;;;;;29.40;11.95;;;;;;;3.86;55.04;102827.75;4966781;28;109691;-72
2023/01/29 05:48:26;;;;;;;25.98;12.38;;;;;;;3.88;55.06;102828.66;4964534;28;110251;-72
2023/01/29 05:50:59;;;;;;;28.27;11.90;;;;;;;3.91;55.18;102826.09;4972130;28;125074;-71
2023/01/29 05:53:28;;;;;;;29.55;11.40;;;;;;;3.94;55.23;102828.75;4958377;28;124511;-72
2023/01/29 05:55:56;;;;;;;29.45;12.13;;;;;;;3.96;55.19;102826.16;4962587;28;109527;-72
2023/01/29 05:58:23;;;;;;;28.35;12.90;;;;;;;3.97;55.19;102834.03;4956636;28;109936;-72
2023/01/29 06:00:50;;;;;;;29.17;12.20;;;;;;;4.00;55.15;102847.19;4957328;28;123812;-72
2023/01/29 06:03:17;;;;;;;26.83;11.90;;;;;;;4.01;55.23;102845.44;4957590;28;124051;-72
2023/01/29 06:05:44;;;;;;;26.52;12.05;;;;;;;4.01;55.08;102843.72;4956780;28;113475;-72
2023/01/29 06:08:12;;;;;;;29.35;12.23;;;;;;;4.04;55.16;102846.38;4956596;28;113794;-72
2023/01/29 06:10:39;;;;;;;27.55;12.60;;;;;;;4.05;55.03;102848.16;4972326;28;123209;-72
2023/01/29 06:13:06;;;;;;;30.52;11.75;;;;;;;4.08;55.19;102850.81;4959095;28;124008;-72
2023/01/29 06:15:33;;;;;;;29.48;12.93;;;;;;;4.13;55.29;102860.50;4954437;28;115245;-72
2023/01/29 06:18:00;;;;;;;27.08;12.27;;;;;;;4.14;55.23;102862.25;4956578;28;115722;-72
2023/01/29 06:20:27;;;;;;;27.98;12.65;;;;;;;4.16;55.13;102860.53;4956710;28;124585;-72
2023/01/29 06:22:55;;;;;;;27.42;12.10;;;;;;;4.15;55.17;102848.28;4960913;28;123814;-72
2023/01/29 06:25:21;;;;;;;28.00;12.85;;;;;;;4.17;55.22;102838.69;4956353;28;113634;-72
2023/01/29 06:27:50;;;;;;;27.80;12.40;;;;;;;4.20;55.16;102836.09;4958075;28;113171;-72
2023/01/29 06:30:17;;;;;;;30.13;12.38;;;;;;;4.22;55.30;102818.63;4952412;28;123400;-72
2023/01/29 06:32:44;;;;;;;30.88;13.55;;;;;;;4.24;55.33;102824.81;4955816;28;124419;-72
2023/01/29 06:35:11;;;;;;;29.25;12.85;;;;;;;4.27;55.25;102822.22;4952961;28;113440;-72
2023/01/29 06:37:38;;;;;;;33.35;13.25;;;;;;;4.27;54.97;102816.97;4969619;28;114112;-72
2023/01/29 06:40:07;;;;;;;31.25;13.05;;;;;;;4.27;55.08;102822.22;4960099;28;123476;-72
2023/01/29 06:42:34;;;;;;;29.70;12.77;;;;;;;4.28;55.01;102818.75;4961747;28;124557;-72
2023/01/29 06:45:02;;;;;;;28.58;13.27;;;;;;;4.29;55.26;102815.25;4957913;28;114995;-72
2023/01/29 06:47:29;;;;;;;30.00;12.50;;;;;;;4.32;54.97;102820.53;4959817;28;113950;-72
2023/01/29 06:49:56;;;;;;;30.02;12.77;;;;;;;4.35;54.79;102815.34;4972241;28;124588;-72
2023/01/29 06:52:27;;;;;;;32.63;13.10;;;;;;;4.35;55.09;102804.84;4972613;28;123547;-72
2023/01/29 06:54:55;;;;;;;29.20;12.80;;;;;;;4.36;55.34;102809.22;4956778;28;114303;-72
2023/01/29 06:57:22;;;;;;;32.65;14.10;;;;;;;4.39;55.08;102817.13;4958329;28;116390;-72
2023/01/29 06:59:49;;;;;;;34.45;14.15;;;;;;;4.41;55.22;102807.53;4955627;28;123944;-72
2023/01/29 07:02:16;;;;;;;32.22;13.57;;;;;;;4.40;54.97;102803.13;4971425;28;123817;-72
2023/01/29 07:04:43;;;;;;;31.90;13.27;;;;;;;4.42;55.00;102809.28;4952475;28;114328;-72
2023/01/29 07:07:12;;;;;;;34.55;14.32;;;;;;;4.41;55.00;102810.16;4956760;28;115649;-72
2023/01/29 07:09:40;;;;;;;36.55;13.60;;;;;;;4.41;55.09;102815.41;4956832;28;124573;-72
2023/01/29 07:12:10;;;;;;;28.23;13.18;;;;;;;4.43;55.40;102818.94;4960684;28;124422;-72
2023/01/29 07:14:37;;;;;;;33.65;13.75;;;;;;;4.45;55.22;102832.06;4962102;28;114501;-72
2023/01/29 07:17:04;;;;;;;34.80;14.80;;;;;;;4.45;55.36;102822.44;4952253;28;113848;-71
2023/01/29 07:19:31;;;;;;;34.22;14.25;;;;;;;4.47;55.37;102825.97;4956635;28;124410;-72
2023/01/29 07:22:01;;;;;;;31.15;13.40;;;;;;;4.49;55.18;102819.00;4960005;28;124703;-72
2023/01/29 07:24:28;;;;;;;31.00;13.73;;;;;;;4.53;55.37;102819.91;4975590;28;113964;-72
2023/01/29 07:26:55;;;;;;;31.83;13.75;;;;;;;4.54;55.17;102816.44;4978003;28;113387;-72
2023/01/29 07:29:23;;;;;;;34.97;14.43;;;;;;;4.55;55.46;102812.94;4971339;28;124156;-72
2023/01/29 07:31:50;;;;;;;34.65;14.20;;;;;;;4.57;55.08;102807.72;4967374;28;125824;-72
2023/01/29 07:34:17;;;;;;;31.52;13.25;;;;;;;4.58;55.12;102806.88;4960222;28;113225;-72
2023/01/29 07:36:44;;;;;;;34.70;13.93;;;;;;;4.59;55.46;102798.13;4963813;28;113918;-72
2023/01/29 07:39:11;;;;;;;30.83;13.02;;;;;;;4.61;55.27;102801.63;4966014;28;124358;-71
2023/01/29 07:41:38;;;;;;;31.15;14.48;;;;;;;4.62;55.44;102798.16;4963848;28;124226;-71
2023/01/29 07:44:14;;;;;;;37.30;15.30;;;;;;;4.63;55.23;102805.16;4954873;28;113913;-72
2023/01/29 07:46:42;;;;;;;33.92;14.30;;;;;;;4.65;55.21;102792.94;4975136;28;114313;-70
2023/01/29 07:49:09;;;;;;;31.23;13.45;;;;;;;4.65;55.39;102808.66;4952708;28;124797;-70
2023/01/29 07:51:36;;;;;;;31.42;13.00;;;;;;;4.67;55.28;102802.59;4962560;28;124221;-70
2023/01/29 07:54:03;;;;;;;34.72;13.77;;;;;;;4.67;55.39;102802.59;4958792;28;115721;-72
2023/01/29 07:56:30;;;;;;;38.60;13.98;;;;;;;4.66;55.04;102810.44;4957279;28;114909;-72
2023/01/29 07:58:58;;;;;;;35.38;15.77;;;;;;;4.68;55.23;102808.72;4977279;28;123858;-73
2023/01/29 08:01:25;;;;;;;35.30;14.63;;;;;;;4.68;55.11;102803.47;4958984;28;124035;-72
2023/01/29 08:03:52;;;;;;;34.60;15.70;;;;;;;4.68;55.34;102801.72;4956446;28;114660;-71
2023/01/29 08:06:19;;;;;;;38.60;15.18;;;;;;;4.69;55.41;102810.50;4961782;28;113908;-72
2023/01/29 08:08:46;;;;;;;33.95;14.75;;;;;;;4.70;55.42;102807.00;4958354;28;124394;-72
2023/01/29 08:11:14;;;;;;;31.00;14.48;;;;;;;4.70;55.42;102799.13;4957813;28;123551;-72
2023/01/29 08:13:41;;;;;;;33.38;14.85;;;;;;;4.70;55.53;102804.38;4968928;28;112476;-71
2023/01/29 08:16:08;;;;;;;31.08;14.25;;;;;;;4.71;55.34;102798.25;4974718;28;113849;-72
2023/01/29 08:18:37;;;;;;;33.67;15.50;;;;;;;4.71;55.34;102793.00;4966023;28;123551;-72
2023/01/29 08:21:04;;;;;;;32.42;14.70;;;;;;;4.72;55.16;102789.50;4959544;28;124702;-72
2023/01/29 08:23:31;;;;;;;31.10;15.07;;;;;;;4.72;55.14;102791.25;4966888;28;113933;-73
2023/01/29 08:25:58;;;;;;;31.92;14.77;;;;;;;4.72;55.18;102784.25;4973799;28;112441;-72
2023/01/29 08:28:25;;;;;;;32.70;14.57;;;;;;;4.74;55.26;102781.66;4962467;28;123809;-73
2023/01/29 08:30:53;;;;;;;32.00;14.52;;;;;;;4.76;55.42;102775.53;4968639;28;124009;-72
2023/01/29 08:33:20;;;;;;;31.30;13.57;;;;;;;4.76;55.30;102770.31;4972674;28;114542;-72
2023/01/29 08:35:59;;;;;;;36.20;15.15;;;;;;;4.77;55.17;102766.81;4973481;28;113404;-71
2023/01/29 08:38:26;;;;;;;31.13;14.27;;;;;;;4.77;55.22;102766.81;4972746;28;123661;-71
2023/01/29 08:40:53;;;;;;;30.95;14.57;;;;;;;4.77;54.93;102776.44;4986693;28;122642;-71
2023/01/29 08:43:21;;;;;;;32.38;14.93;;;;;;;4.76;55.35;102778.16;4985128;28;116175;-71
2023/01/29 08:45:48;;;;;;;28.73;13.68;;;;;;;4.78;55.18;102779.06;4977421;28;114273;-72
2023/01/29 08:48:15;;;;;;;31.75;14.93;;;;;;;4.81;55.09;102773.00;4971993;28;123859;-72
2023/01/29 08:50:42;;;;;;;34.85;14.80;;;;;;;4.83;55.16;102772.13;4968565;28;123447;-72
2023/01/29 08:53:09;;;;;;;31.77;13.80;;;;;;;4.83;55.32;102761.63;4967248;28;114265;-72
2023/01/29 08:55:38;;;;;;;29.05;14.23;;;;;;;4.85;55.54;102754.63;4966343;28;114651;-73
2023/01/29 08:58:06;;;;;;;33.08;14.25;;;;;;;4.87;55.51;102742.41;4953090;28;123908;-74
2023/01/29 09:00:34;;;;;;;33.67;14.85;;;;;;;4.88;55.24;102744.19;4985114;28;124681;-74
2023/01/29 09:03:02;;;;;;;28.90;13.93;;;;;;;4.91;55.55;102750.31;4971142;28;114679;-72
2023/01/29 09:05:29;;;;;;;29.48;13.43;;;;;;;4.91;55.46;102747.69;4960331;28;114547;-74
2023/01/29 09:07:56;;;;;;;32.72;13.75;;;;;;;4.93;55.74;102753.84;4965757;28;123768;-73
2023/01/29 09:10:25;;;;;;;37.90;15.30;;;;;;;4.94;55.50;102745.13;4978606;28;123470;-73
2023/01/29 09:12:52;;;;;;;30.23;13.88;;;;;;;4.95;55.35;102738.97;4969782;28;114510;-73
2023/01/29 09:15:19;;;;;;;31.92;14.15;;;;;;;4.96;55.34;102730.25;4968822;28;115080;-72
2023/01/29 09:17:48;;;;;;;30.15;14.02;;;;;;;4.97;55.29;102737.25;4960597;28;124045;-73
2023/01/29 09:20:16;;;;;;;31.95;14.15;;;;;;;4.99;55.65;102740.75;4977797;28;124151;-73
2023/01/29 09:22:43;;;;;;;31.35;13.50;;;;;;;5.00;55.48;102737.28;4965008;28;114392;-73
2023/01/29 09:25:11;;;;;;;35.55;14.43;;;;;;;5.02;55.56;102740.78;4953753;28;114109;-73
2023/01/29 09:27:38;;;;;;;34.17;14.25;;;;;;;5.05;55.61;102735.59;4961682;28;124279;-73
2023/01/29 09:30:06;;;;;;;32.10;14.40;;;;;;;5.09;55.48;102736.50;4956261;28;123817;-73
2023/01/29 09:32:33;;;;;;;30.83;14.38;;;;;;;5.10;55.52;102739.09;4972936;28;114689;-73
2023/01/29 09:35:21;;;;;;;32.25;14.20;;;;;;;5.12;55.43;102745.25;4961934;28;115282;-73
2023/01/29 09:37:49;;;;;;;31.20;14.43;;;;;;;5.14;55.46;102746.16;4974003;28;125155;-74
2023/01/29 09:40:25;;;;;;;31.60;14.13;;;;;;;5.17;55.46;102751.44;4972875;28;124588;-74
2023/01/29 09:43:10;;;;;;;31.30;13.80;;;;;;;5.19;55.53;102747.06;4957636;28;114243;-71
2023/01/29 09:45:42;;;;;;;28.98;13.93;;;;;;;5.23;55.25;102746.22;4954741;28;113888;-73
2023/01/29 09:48:12;;;;;;;34.00;15.02;;;;;;;5.26;55.49;102751.50;4955998;28;123752;-73
2023/01/29 09:50:45;;;;;;;35.97;14.68;;;;;;;5.30;55.51;102751.53;4952782;28;124935;-73
2023/01/29 09:53:23;;;;;;;31.42;14.23;;;;;;;5.33;55.37;102746.28;4957254;28;114550;-73
2023/01/29 09:56:00;;;;;;;27.92;13.25;;;;;;;5.34;55.35;102750.69;4953038;28;113824;-73
2023/01/29 09:58:40;;;;;;;28.80;14.18;;;;;;;5.36;55.43;102751.56;4965026;28;123756;-73
2023/01/29 10:01:22;;;;;;;28.35;13.80;;;;;;;5.36;55.12;102746.31;4957895;28;123602;-73
2023/01/29 10:04:14;;;;;;;32.33;14.55;;;;;;;5.36;55.36;102747.19;4968099;28;114454;-73
2023/01/29 10:07:01;;;;;;;32.17;14.05;;;;;;;5.36;55.28;102741.94;4968168;28;114283;-73
2023/01/29 10:09:42;;;;;;;31.88;13.95;;;;;;;5.39;55.30;102746.34;4951839;28;123892;-73
2023/01/29 10:12:37;;;;;;;30.77;13.68;;;;;;;5.40;55.45;102737.59;4953982;28;123893;-73
2023/01/29 10:15:29;;;;;;;32.42;14.15;;;;;;;5.42;55.26;102743.72;4961512;28;114060;-73
2023/01/29 10:18:51;;;;;;;31.38;14.65;;;;;;;5.43;55.52;102748.13;4952533;28;114334;-73
2023/01/29 10:21:51;;;;;;;29.30;14.13;;;;;;;5.45;55.29;102746.38;4939301;28;124715;-73
2023/01/29 10:24:40;;;;;;;28.98;13.77;;;;;;;5.45;55.11;102743.75;4969499;28;123737;-73
2023/01/29 10:27:14;;;;;;;35.70;14.05;;;;;;;5.47;55.26;102749.91;4967896;28;115224;-73
2023/01/29 10:29:43;;;;;;;30.10;14.00;;;;;;;5.47;55.05;102739.41;4980260;28;114967;-73
2023/01/29 10:32:18;;;;;;;28.63;13.52;;;;;;;5.50;55.11;102749.03;4969387;28;124719;-73
2023/01/29 10:34:55;;;;;;;30.02;12.57;;;;;;;5.52;55.35;102748.19;4967911;28;123028;-73
2023/01/29 10:37:29;;;;;;;29.77;14.50;;;;;;;5.55;55.35;102748.19;4955933;28;114601;-73
2023/01/29 10:39:58;;;;;;;27.10;13.13;;;;;;;5.57;55.38;102751.72;4960544;28;114219;-73
2023/01/29 10:42:45;;;;;;;31.30;13.68;;;;;;;5.60;55.04;102750.88;4959341;28;124967;-73
2023/01/29 10:45:20;;;;;;;29.23;14.18;;;;;;;5.61;55.40;102743.00;4966370;28;125087;-73
2023/01/29 10:48:14;;;;;;;29.23;13.57;;;;;;;5.65;54.95;102733.34;4968766;28;114922;-72
2023/01/29 10:50:58;;;;;;;26.40;12.60;;;;;;;5.68;55.21;102732.53;4955745;28;114431;-73
2023/01/29 10:53:55;;;;;;;30.95;13.32;;;;;;;5.71;55.26;102727.25;4954017;28;124166;-73
2023/01/29 10:56:53;;;;;;;30.63;13.48;;;;;;;5.75;55.15;102723.81;4960039;28;123457;-73
2023/01/29 10:59:32;;;;;;;24.83;12.93;;;;;;;5.77;55.37;102711.53;4959487;28;114287;-74
2023/01/29 11:01:59;;;;;;;34.35;14.00;;;;;;;5.81;55.38;102710.69;4961129;28;112918;-73
2023/01/29 11:04:29;;;;;;;30.65;13.70;;;;;;;5.83;55.18;102701.03;4956858;28;123926;-73
2023/01/29 11:06:58;;;;;;;30.25;13.18;;;;;;;5.85;55.23;102688.78;4968347;28;123857;-73
2023/01/29 11:09:29;;;;;;;28.67;13.23;;;;;;;5.88;54.88;102686.19;4969718;28;114086;-73
2023/01/29 11:12:01;;;;;;;28.42;13.38;;;;;;;5.92;54.92;102674.78;4967600;28;114143;-73
2023/01/29 11:14:38;;;;;;;27.38;13.25;;;;;;;5.96;55.23;102676.59;4984971;28;98635;-73
2023/01/29 11:17:15;;;;;;;26.83;13.15;;;;;;;6.01;55.04;102674.00;4960363;28;123867;-73
2023/01/29 11:19:44;;;;;;;27.50;13.20;;;;;;;6.05;54.99;102670.50;4956670;28;115794;-73
2023/01/29 11:22:21;;;;;;;23.95;11.63;;;;;;;6.07;54.68;102667.88;4964863;28;114800;-75
2023/01/29 11:25:14;;;;;;;24.85;10.00;;;;;;;6.10;54.94;102663.47;4960228;28;124488;-73
2023/01/29 11:27:49;;;;;;;23.50;11.43;;;;;;;6.13;55.00;102657.38;4960522;28;123760;-73
2023/01/29 11:30:36;;;;;;;27.17;11.27;;;;;;;6.18;54.78;102660.88;4955924;28;112659;-73
2023/01/29 11:33:03;;;;;;;22.55;10.75;;;;;;;6.20;54.77;102651.25;4963648;28;113227;-73
2023/01/29 11:35:32;;;;;;;23.90;10.65;;;;;;;6.22;54.75;102641.59;4959878;28;124842;-73
2023/01/29 11:38:13;;;;;;;20.58;9.90;;;;;;;6.26;54.90;102643.34;4975526;28;124762;-73
2023/01/29 11:40:40;;;;;;;23.08;10.45;;;;;;;6.31;54.84;102624.94;4973228;28;114583;-73
2023/01/29 11:43:11;;;;;;;21.05;9.98;;;;;;;6.35;54.75;102622.31;4961311;28;113773;-73
2023/01/29 11:45:39;;;;;;;20.75;10.32;;;;;;;6.40;54.60;102615.31;4968189;28;123774;-73
2023/01/29 11:48:15;;;;;;;23.10;10.25;;;;;;;6.46;54.60;102603.00;4974245;28;124326;-73
2023/01/29 11:50:43;;;;;;;19.63;9.73;;;;;;;6.51;54.94;102596.00;4973467;28;115195;-72
2023/01/29 11:53:25;;;;;;;20.08;9.85;;;;;;;6.51;54.46;102588.13;4954874;28;113982;-72
2023/01/29 11:55:54;;;;;;;17.75;8.98;;;;;;;6.55;54.73;102592.50;4957370;28;123730;-72
2023/01/29 11:58:31;;;;;;;23.13;9.40;;;;;;;6.59;54.41;102588.97;4954291;28;124247;-71
2023/01/29 12:01:00;;;;;;;19.38;9.40;;;;;;;6.62;54.57;102594.25;4952576;28;114108;-72
2023/01/29 12:03:42;;;;;;;20.77;9.88;;;;;;;6.63;54.34;102590.75;4963532;28;114627;-72
2023/01/29 12:06:21;;;;;;;20.15;9.93;;;;;;;6.65;54.35;102589.00;4956887;28;124255;-72
2023/01/29 12:09:01;;;;;;;23.10;10.25;;;;;;;6.68;54.45;102583.72;4964076;28;123799;-72
2023/01/29 12:11:28;;;;;;;21.23;9.57;;;;;;;6.72;54.49;102569.66;4958916;28;115370;-72
2023/01/29 12:14:01;;;;;;;19.83;9.20;;;;;;;6.74;54.40;102562.66;4956366;28;114727;-72